sensor_id;sensor_type;location;lat;lon;timestamp;temperature;humidity
22623;DHT22;11478;51.094;7.030;2023-05-10T00:02:15;12.80;99.90
22623;DHT22;11478;51.094;7.030;2023-05-10T00:04:44;12.80;99.90
22623;DHT22;11478;51.094;7.030;2023-05-10T00:07:10;12.80;99.90
22623;DHT22;11478;51.094;7.030;2023-05-10T00:09:36;12.80;99.90
22623;DHT22;11478;51.094;7.030;2023-05-10T00:12:02;12.80;99.90
22623;DHT22;11478;51.094;7.030;2023-05-10T00:14:28;12.80;99.90
22623;DHT22;11478;51.094;7.030;2023-05-10T00:16:54;12.80;99.90
22623;DHT22;11478;51.094;7.030;2023-05-10T00:19:20;12.80;99.90
22623;DHT22;11478;51.094;7.030;2023-05-10T00:21:46;12.80;99.90
22623;DHT22;11478;51.094;7.030;2023-05-10T00:24:14;12.80;99.90
22623;DHT22;11478;51.094;7.030;2023-05-10T00:26:40;12.80;99.90
22623;DHT22;11478;51.094;7.030;2023-05-10T00:29:08;12.80;99.90
22623;DHT22;11478;51.094;7.030;2023-05-10T00:31:41;12.80;99.90
22623;DHT22;11478;51.094;7.030;2023-05-10T00:34:06;12.80;99.90
22623;DHT22;11478;51.094;7.030;2023-05-10T00:36:35;12.80;99.90
22623;DHT22;11478;51.094;7.030;2023-05-10T00:39:01;12.80;99.90
22623;DHT22;11478;51.094;7.030;2023-05-10T00:41:31;12.80;99.90
22623;DHT22;11478;51.094;7.030;2023-05-10T00:43:59;12.80;99.90
22623;DHT22;11478;51.094;7.030;2023-05-10T00:46:27;12.80;99.90
22623;DHT22;11478;51.094;7.030;2023-05-10T00:48:54;12.80;99.90
22623;DHT22;11478;51.094;7.030;2023-05-10T00:51:23;12.80;99.90
22623;DHT22;11478;51.094;7.030;2023-05-10T00:53:49;12.80;99.90
22623;DHT22;11478;51.094;7.030;2023-05-10T00:56:16;12.80;99.90
22623;DHT22;11478;51.094;7.030;2023-05-10T00:58:42;12.80;99.90
22623;DHT22;11478;51.094;7.030;2023-05-10T01:01:09;12.80;99.90
22623;DHT22;11478;51.094;7.030;2023-05-10T01:03:36;12.80;99.90
22623;DHT22;11478;51.094;7.030;2023-05-10T01:06:05;12.80;99.90
22623;DHT22;11478;51.094;7.030;2023-05-10T01:08:31;12.80;99.90
22623;DHT22;11478;51.094;7.030;2023-05-10T01:11:01;12.80;99.90
22623;DHT22;11478;51.094;7.030;2023-05-10T01:13:30;12.80;99.90
22623;DHT22;11478;51.094;7.030;2023-05-10T01:16:04;12.80;99.90
22623;DHT22;11478;51.094;7.030;2023-05-10T01:18:35;12.80;99.90
22623;DHT22;11478;51.094;7.030;2023-05-10T01:21:38;12.80;99.90
22623;DHT22;11478;51.094;7.030;2023-05-10T01:30:15;12.80;99.90
22623;DHT22;11478;51.094;7.030;2023-05-10T01:44:40;12.80;99.90
22623;DHT22;11478;51.094;7.030;2023-05-10T01:50:26;12.80;99.90
22623;DHT22;11478;51.094;7.030;2023-05-10T01:52:59;12.80;99.90
22623;DHT22;11478;51.094;7.030;2023-05-10T01:55:28;12.80;99.90
22623;DHT22;11478;51.094;7.030;2023-05-10T01:58:27;12.80;99.90
22623;DHT22;11478;51.094;7.030;2023-05-10T02:00:54;12.80;99.90
22623;DHT22;11478;51.094;7.030;2023-05-10T02:03:26;12.80;99.90
22623;DHT22;11478;51.094;7.030;2023-05-10T02:05:54;12.80;99.90
22623;DHT22;11478;51.094;7.030;2023-05-10T02:08:22;12.70;99.90
22623;DHT22;11478;51.094;7.030;2023-05-10T02:10:51;12.70;99.90
22623;DHT22;11478;51.094;7.030;2023-05-10T02:13:23;12.70;99.90
22623;DHT22;11478;51.094;7.030;2023-05-10T02:15:50;12.70;99.90
22623;DHT22;11478;51.094;7.030;2023-05-10T02:18:19;12.70;99.90
22623;DHT22;11478;51.094;7.030;2023-05-10T02:20:46;12.60;99.90
22623;DHT22;11478;51.094;7.030;2023-05-10T02:23:17;12.60;99.90
22623;DHT22;11478;51.094;7.030;2023-05-10T02:25:44;12.60;99.90
22623;DHT22;11478;51.094;7.030;2023-05-10T02:28:15;12.60;99.90
22623;DHT22;11478;51.094;7.030;2023-05-10T02:30:43;12.60;99.90
22623;DHT22;11478;51.094;7.030;2023-05-10T02:33:12;12.50;99.90
22623;DHT22;11478;51.094;7.030;2023-05-10T02:35:39;12.60;99.90
22623;DHT22;11478;51.094;7.030;2023-05-10T02:38:06;12.50;99.90
22623;DHT22;11478;51.094;7.030;2023-05-10T02:40:33;12.60;99.90
22623;DHT22;11478;51.094;7.030;2023-05-10T02:43:02;12.60;99.90
22623;DHT22;11478;51.094;7.030;2023-05-10T02:45:31;12.60;99.90
22623;DHT22;11478;51.094;7.030;2023-05-10T02:47:58;12.60;99.90
22623;DHT22;11478;51.094;7.030;2023-05-10T02:50:27;12.50;99.90
22623;DHT22;11478;51.094;7.030;2023-05-10T02:53:00;12.60;99.90
22623;DHT22;11478;51.094;7.030;2023-05-10T02:55:35;12.50;99.90
22623;DHT22;11478;51.094;7.030;2023-05-10T02:58:03;12.50;99.90
22623;DHT22;11478;51.094;7.030;2023-05-10T03:00:31;12.50;99.90
22623;DHT22;11478;51.094;7.030;2023-05-10T03:02:58;12.50;99.90
22623;DHT22;11478;51.094;7.030;2023-05-10T03:05:32;12.50;99.90
22623;DHT22;11478;51.094;7.030;2023-05-10T03:07:59;12.50;99.90
22623;DHT22;11478;51.094;7.030;2023-05-10T03:10:32;12.50;99.90
22623;DHT22;11478;51.094;7.030;2023-05-10T03:13:19;12.50;99.90
22623;DHT22;11478;51.094;7.030;2023-05-10T03:18:36;12.50;99.90
22623;DHT22;11478;51.094;7.030;2023-05-10T03:21:07;12.50;99.90
22623;DHT22;11478;51.094;7.030;2023-05-10T03:23:53;12.50;99.90
22623;DHT22;11478;51.094;7.030;2023-05-10T03:26:29;12.50;99.90
22623;DHT22;11478;51.094;7.030;2023-05-10T03:28:57;12.50;99.90
22623;DHT22;11478;51.094;7.030;2023-05-10T03:31:25;12.60;99.90
22623;DHT22;11478;51.094;7.030;2023-05-10T03:33:52;12.60;99.90
22623;DHT22;11478;51.094;7.030;2023-05-10T03:36:19;12.60;99.90
22623;DHT22;11478;51.094;7.030;2023-05-10T03:38:47;12.60;99.90
22623;DHT22;11478;51.094;7.030;2023-05-10T03:41:13;12.60;99.90
22623;DHT22;11478;51.094;7.030;2023-05-10T03:43:39;12.60;99.90
22623;DHT22;11478;51.094;7.030;2023-05-10T03:46:11;12.60;99.90
22623;DHT22;11478;51.094;7.030;2023-05-10T03:48:37;12.60;99.90
22623;DHT22;11478;51.094;7.030;2023-05-10T03:51:03;12.60;99.90
22623;DHT22;11478;51.094;7.030;2023-05-10T03:53:29;12.60;99.90
22623;DHT22;11478;51.094;7.030;2023-05-10T03:55:56;12.60;99.90
22623;DHT22;11478;51.094;7.030;2023-05-10T03:58:22;12.60;99.90
22623;DHT22;11478;51.094;7.030;2023-05-10T04:00:49;12.60;99.90
22623;DHT22;11478;51.094;7.030;2023-05-10T04:03:15;12.60;99.90
22623;DHT22;11478;51.094;7.030;2023-05-10T04:05:45;12.60;99.90
22623;DHT22;11478;51.094;7.030;2023-05-10T04:08:11;12.60;99.90
22623;DHT22;11478;51.094;7.030;2023-05-10T04:10:42;12.50;99.90
22623;DHT22;11478;51.094;7.030;2023-05-10T04:13:08;12.60;99.90
22623;DHT22;11478;51.094;7.030;2023-05-10T04:15:37;12.60;99.90
22623;DHT22;11478;51.094;7.030;2023-05-10T04:18:03;12.60;99.90
22623;DHT22;11478;51.094;7.030;2023-05-10T04:20:32;12.60;99.90
22623;DHT22;11478;51.094;7.030;2023-05-10T04:23:01;12.60;99.90
22623;DHT22;11478;51.094;7.030;2023-05-10T04:25:27;12.60;99.90
22623;DHT22;11478;51.094;7.030;2023-05-10T04:27:53;12.60;99.90
22623;DHT22;11478;51.094;7.030;2023-05-10T04:30:20;12.60;99.90
22623;DHT22;11478;51.094;7.030;2023-05-10T04:32:46;12.60;99.90
22623;DHT22;11478;51.094;7.030;2023-05-10T04:35:12;12.60;99.90
22623;DHT22;11478;51.094;7.030;2023-05-10T04:37:43;12.60;99.90
22623;DHT22;11478;51.094;7.030;2023-05-10T04:40:12;12.60;99.90
22623;DHT22;11478;51.094;7.030;2023-05-10T04:42:40;12.60;99.90
22623;DHT22;11478;51.094;7.030;2023-05-10T04:45:09;12.60;99.90
22623;DHT22;11478;51.094;7.030;2023-05-10T04:47:35;12.60;99.90
22623;DHT22;11478;51.094;7.030;2023-05-10T04:50:04;12.60;99.90
22623;DHT22;11478;51.094;7.030;2023-05-10T04:52:30;12.70;99.90
22623;DHT22;11478;51.094;7.030;2023-05-10T04:54:56;12.70;99.90
22623;DHT22;11478;51.094;7.030;2023-05-10T04:57:22;12.60;99.90
22623;DHT22;11478;51.094;7.030;2023-05-10T04:59:49;12.60;99.90
22623;DHT22;11478;51.094;7.030;2023-05-10T05:02:14;12.60;99.90
22623;DHT22;11478;51.094;7.030;2023-05-10T05:04:41;12.70;99.90
22623;DHT22;11478;51.094;7.030;2023-05-10T05:07:06;12.70;99.90
22623;DHT22;11478;51.094;7.030;2023-05-10T05:09:33;12.70;99.90
22623;DHT22;11478;51.094;7.030;2023-05-10T05:11:58;12.70;99.90
22623;DHT22;11478;51.094;7.030;2023-05-10T05:14:25;12.70;99.90
22623;DHT22;11478;51.094;7.030;2023-05-10T05:16:54;12.70;99.90
22623;DHT22;11478;51.094;7.030;2023-05-10T05:19:21;12.80;99.90
22623;DHT22;11478;51.094;7.030;2023-05-10T05:21:47;12.80;99.90
22623;DHT22;11478;51.094;7.030;2023-05-10T05:24:16;12.80;99.90
22623;DHT22;11478;51.094;7.030;2023-05-10T05:26:41;12.80;99.90
22623;DHT22;11478;51.094;7.030;2023-05-10T05:29:07;12.80;99.90
22623;DHT22;11478;51.094;7.030;2023-05-10T05:31:34;12.80;99.90
22623;DHT22;11478;51.094;7.030;2023-05-10T05:34:00;12.90;99.90
22623;DHT22;11478;51.094;7.030;2023-05-10T05:36:27;12.90;99.90
22623;DHT22;11478;51.094;7.030;2023-05-10T05:38:52;12.90;99.90
22623;DHT22;11478;51.094;7.030;2023-05-10T05:41:21;12.90;99.90
22623;DHT22;11478;51.094;7.030;2023-05-10T05:43:47;12.90;99.90
22623;DHT22;11478;51.094;7.030;2023-05-10T05:46:14;13.00;99.90
22623;DHT22;11478;51.094;7.030;2023-05-10T05:48:39;13.00;99.90
22623;DHT22;11478;51.094;7.030;2023-05-10T05:51:06;13.00;99.90
22623;DHT22;11478;51.094;7.030;2023-05-10T05:53:32;13.00;99.90
22623;DHT22;11478;51.094;7.030;2023-05-10T05:55:58;13.00;99.90
22623;DHT22;11478;51.094;7.030;2023-05-10T05:58:25;13.00;99.90
22623;DHT22;11478;51.094;7.030;2023-05-10T06:00:52;13.00;99.90
22623;DHT22;11478;51.094;7.030;2023-05-10T06:03:18;13.00;99.90
22623;DHT22;11478;51.094;7.030;2023-05-10T06:05:44;13.00;99.90
22623;DHT22;11478;51.094;7.030;2023-05-10T06:08:10;12.90;99.90
22623;DHT22;11478;51.094;7.030;2023-05-10T06:10:37;12.90;99.90
22623;DHT22;11478;51.094;7.030;2023-05-10T06:13:05;12.90;99.90
22623;DHT22;11478;51.094;7.030;2023-05-10T06:15:32;12.90;99.90
22623;DHT22;11478;51.094;7.030;2023-05-10T06:17:58;12.90;99.90
22623;DHT22;11478;51.094;7.030;2023-05-10T06:20:49;12.90;99.90
22623;DHT22;11478;51.094;7.030;2023-05-10T06:23:17;12.90;99.90
22623;DHT22;11478;51.094;7.030;2023-05-10T06:25:48;12.90;99.90
22623;DHT22;11478;51.094;7.030;2023-05-10T06:28:14;12.90;99.90
22623;DHT22;11478;51.094;7.030;2023-05-10T06:30:40;12.90;99.90
22623;DHT22;11478;51.094;7.030;2023-05-10T06:33:06;12.90;99.90
22623;DHT22;11478;51.094;7.030;2023-05-10T06:35:33;12.90;99.90
22623;DHT22;11478;51.094;7.030;2023-05-10T06:37:59;12.90;99.90
22623;DHT22;11478;51.094;7.030;2023-05-10T06:40:27;12.90;99.90
22623;DHT22;11478;51.094;7.030;2023-05-10T06:42:53;12.80;99.90
22623;DHT22;11478;51.094;7.030;2023-05-10T06:45:21;12.80;99.90
22623;DHT22;11478;51.094;7.030;2023-05-10T06:47:47;12.80;99.90
22623;DHT22;11478;51.094;7.030;2023-05-10T06:50:14;12.80;99.90
22623;DHT22;11478;51.094;7.030;2023-05-10T06:52:40;12.80;99.90
22623;DHT22;11478;51.094;7.030;2023-05-10T06:55:10;12.80;99.90
22623;DHT22;11478;51.094;7.030;2023-05-10T06:57:36;12.80;99.90
22623;DHT22;11478;51.094;7.030;2023-05-10T07:00:08;12.80;99.90
22623;DHT22;11478;51.094;7.030;2023-05-10T07:02:35;12.80;99.90
22623;DHT22;11478;51.094;7.030;2023-05-10T07:05:14;12.80;99.90
22623;DHT22;11478;51.094;7.030;2023-05-10T07:07:40;12.80;99.90
22623;DHT22;11478;51.094;7.030;2023-05-10T07:10:15;12.80;99.90
22623;DHT22;11478;51.094;7.030;2023-05-10T07:12:41;12.80;99.90
22623;DHT22;11478;51.094;7.030;2023-05-10T07:15:13;12.70;99.90
22623;DHT22;11478;51.094;7.030;2023-05-10T07:17:39;12.70;99.90
22623;DHT22;11478;51.094;7.030;2023-05-10T07:20:10;12.80;99.90
22623;DHT22;11478;51.094;7.030;2023-05-10T07:22:37;12.80;99.90
22623;DHT22;11478;51.094;7.030;2023-05-10T07:25:07;12.80;99.90
22623;DHT22;11478;51.094;7.030;2023-05-10T07:27:36;12.80;99.90
22623;DHT22;11478;51.094;7.030;2023-05-10T07:30:02;12.80;99.90
22623;DHT22;11478;51.094;7.030;2023-05-10T07:32:43;12.70;99.90
22623;DHT22;11478;51.094;7.030;2023-05-10T07:35:09;12.70;99.90
22623;DHT22;11478;51.094;7.030;2023-05-10T07:37:37;12.70;99.90
22623;DHT22;11478;51.094;7.030;2023-05-10T07:40:03;12.80;99.90
22623;DHT22;11478;51.094;7.030;2023-05-10T07:42:43;12.80;99.90
22623;DHT22;11478;51.094;7.030;2023-05-10T07:45:09;12.80;99.90
22623;DHT22;11478;51.094;7.030;2023-05-10T07:47:39;12.80;99.90
22623;DHT22;11478;51.094;7.030;2023-05-10T07:50:06;12.90;99.90
22623;DHT22;11478;51.094;7.030;2023-05-10T07:52:39;12.90;99.90
22623;DHT22;11478;51.094;7.030;2023-05-10T07:55:11;13.00;99.90
22623;DHT22;11478;51.094;7.030;2023-05-10T07:57:44;13.00;99.90
22623;DHT22;11478;51.094;7.030;2023-05-10T08:00:12;13.00;99.90
22623;DHT22;11478;51.094;7.030;2023-05-10T08:02:39;13.10;99.90
22623;DHT22;11478;51.094;7.030;2023-05-10T08:05:11;13.10;99.90
22623;DHT22;11478;51.094;7.030;2023-05-10T08:07:40;13.20;99.90
22623;DHT22;11478;51.094;7.030;2023-05-10T08:10:13;13.20;99.90
22623;DHT22;11478;51.094;7.030;2023-05-10T08:12:50;13.20;99.90
22623;DHT22;11478;51.094;7.030;2023-05-10T08:15:17;13.30;99.90
22623;DHT22;11478;51.094;7.030;2023-05-10T08:17:43;13.30;99.90
22623;DHT22;11478;51.094;7.030;2023-05-10T08:20:10;13.30;99.90
22623;DHT22;11478;51.094;7.030;2023-05-10T08:22:38;13.30;99.90
22623;DHT22;11478;51.094;7.030;2023-05-10T08:25:09;13.30;99.90
22623;DHT22;11478;51.094;7.030;2023-05-10T08:27:35;13.40;99.90
22623;DHT22;11478;51.094;7.030;2023-05-10T08:30:02;13.40;99.90
22623;DHT22;11478;51.094;7.030;2023-05-10T08:32:28;13.40;99.90
22623;DHT22;11478;51.094;7.030;2023-05-10T08:34:58;13.40;99.90
22623;DHT22;11478;51.094;7.030;2023-05-10T08:37:24;13.50;99.90
22623;DHT22;11478;51.094;7.030;2023-05-10T08:39:52;13.50;99.90
22623;DHT22;11478;51.094;7.030;2023-05-10T08:42:19;13.50;99.90
22623;DHT22;11478;51.094;7.030;2023-05-10T08:44:48;13.50;99.90
22623;DHT22;11478;51.094;7.030;2023-05-10T08:47:16;13.50;99.90
22623;DHT22;11478;51.094;7.030;2023-05-10T08:49:48;13.50;99.90
22623;DHT22;11478;51.094;7.030;2023-05-10T08:52:17;13.50;99.90
22623;DHT22;11478;51.094;7.030;2023-05-10T08:54:43;13.50;99.90
22623;DHT22;11478;51.094;7.030;2023-05-10T08:57:11;13.50;99.90
22623;DHT22;11478;51.094;7.030;2023-05-10T08:59:44;13.40;99.90
22623;DHT22;11478;51.094;7.030;2023-05-10T09:02:13;13.40;99.90
22623;DHT22;11478;51.094;7.030;2023-05-10T09:04:41;13.40;99.90
22623;DHT22;11478;51.094;7.030;2023-05-10T09:07:08;13.40;99.90
22623;DHT22;11478;51.094;7.030;2023-05-10T09:09:42;13.40;99.90
22623;DHT22;11478;51.094;7.030;2023-05-10T09:12:13;13.50;99.90
22623;DHT22;11478;51.094;7.030;2023-05-10T09:14:44;13.50;99.90
22623;DHT22;11478;51.094;7.030;2023-05-10T09:17:10;13.50;99.90
22623;DHT22;11478;51.094;7.030;2023-05-10T09:19:36;13.60;99.90
22623;DHT22;11478;51.094;7.030;2023-05-10T09:22:03;13.70;99.90
22623;DHT22;11478;51.094;7.030;2023-05-10T09:24:30;13.70;99.90
22623;DHT22;11478;51.094;7.030;2023-05-10T09:26:57;13.70;99.90
22623;DHT22;11478;51.094;7.030;2023-05-10T09:29:43;13.80;99.90
22623;DHT22;11478;51.094;7.030;2023-05-10T09:32:10;13.80;99.90
22623;DHT22;11478;51.094;7.030;2023-05-10T09:34:37;13.80;99.90
22623;DHT22;11478;51.094;7.030;2023-05-10T09:37:05;13.90;99.90
22623;DHT22;11478;51.094;7.030;2023-05-10T09:39:39;13.90;99.90
22623;DHT22;11478;51.094;7.030;2023-05-10T09:42:09;13.90;99.90
22623;DHT22;11478;51.094;7.030;2023-05-10T09:44:35;13.90;99.90
22623;DHT22;11478;51.094;7.030;2023-05-10T09:47:02;13.90;99.90
22623;DHT22;11478;51.094;7.030;2023-05-10T09:49:31;13.90;99.90
22623;DHT22;11478;51.094;7.030;2023-05-10T09:52:02;13.90;99.90
22623;DHT22;11478;51.094;7.030;2023-05-10T09:54:29;13.90;99.90
22623;DHT22;11478;51.094;7.030;2023-05-10T09:56:55;14.00;99.90
22623;DHT22;11478;51.094;7.030;2023-05-10T09:59:27;14.00;99.90
22623;DHT22;11478;51.094;7.030;2023-05-10T10:02:00;14.10;99.90
22623;DHT22;11478;51.094;7.030;2023-05-10T10:04:27;14.10;99.90
22623;DHT22;11478;51.094;7.030;2023-05-10T10:07:03;14.00;99.90
22623;DHT22;11478;51.094;7.030;2023-05-10T10:09:30;13.90;99.90
22623;DHT22;11478;51.094;7.030;2023-05-10T10:11:56;13.80;99.90
22623;DHT22;11478;51.094;7.030;2023-05-10T10:14:25;13.70;99.90
22623;DHT22;11478;51.094;7.030;2023-05-10T10:16:51;13.60;99.90
22623;DHT22;11478;51.094;7.030;2023-05-10T10:19:19;13.50;99.90
22623;DHT22;11478;51.094;7.030;2023-05-10T10:21:47;13.50;99.90
22623;DHT22;11478;51.094;7.030;2023-05-10T10:24:19;13.40;99.90
22623;DHT22;11478;51.094;7.030;2023-05-10T10:26:45;13.50;99.90
22623;DHT22;11478;51.094;7.030;2023-05-10T10:32:09;13.50;99.90
22623;DHT22;11478;51.094;7.030;2023-05-10T10:34:39;13.50;99.90
22623;DHT22;11478;51.094;7.030;2023-05-10T10:37:07;13.60;99.90
22623;DHT22;11478;51.094;7.030;2023-05-10T10:39:33;13.70;99.90
22623;DHT22;11478;51.094;7.030;2023-05-10T10:42:10;13.70;99.90
22623;DHT22;11478;51.094;7.030;2023-05-10T10:44:39;13.80;99.90
22623;DHT22;11478;51.094;7.030;2023-05-10T10:49:51;13.90;99.90
22623;DHT22;11478;51.094;7.030;2023-05-10T10:54:52;13.80;99.90
22623;DHT22;11478;51.094;7.030;2023-05-10T10:57:22;13.80;99.90
22623;DHT22;11478;51.094;7.030;2023-05-10T10:59:48;13.70;99.90
22623;DHT22;11478;51.094;7.030;2023-05-10T11:02:42;13.70;99.90
22623;DHT22;11478;51.094;7.030;2023-05-10T11:05:26;13.70;99.90
22623;DHT22;11478;51.094;7.030;2023-05-10T11:08:07;13.70;99.90
22623;DHT22;11478;51.094;7.030;2023-05-10T11:10:36;13.80;99.90
22623;DHT22;11478;51.094;7.030;2023-05-10T11:13:04;13.80;99.90
22623;DHT22;11478;51.094;7.030;2023-05-10T11:15:36;13.80;99.90
22623;DHT22;11478;51.094;7.030;2023-05-10T11:18:22;13.90;99.90
22623;DHT22;11478;51.094;7.030;2023-05-10T11:21:01;13.90;99.90
22623;DHT22;11478;51.094;7.030;2023-05-10T11:26:09;14.00;99.90
22623;DHT22;11478;51.094;7.030;2023-05-10T11:28:51;14.10;99.90
22623;DHT22;11478;51.094;7.030;2023-05-10T11:31:18;14.00;99.90
22623;DHT22;11478;51.094;7.030;2023-05-10T11:33:59;14.00;99.90
22623;DHT22;11478;51.094;7.030;2023-05-10T11:36:34;14.00;99.90
22623;DHT22;11478;51.094;7.030;2023-05-10T11:39:01;13.90;99.90
22623;DHT22;11478;51.094;7.030;2023-05-10T11:41:29;13.90;99.90
22623;DHT22;11478;51.094;7.030;2023-05-10T11:44:00;13.90;99.90
22623;DHT22;11478;51.094;7.030;2023-05-10T11:46:29;13.90;99.90
22623;DHT22;11478;51.094;7.030;2023-05-10T11:48:59;13.90;99.90
22623;DHT22;11478;51.094;7.030;2023-05-10T11:51:34;13.90;99.90
22623;DHT22;11478;51.094;7.030;2023-05-10T11:54:09;13.90;99.90
22623;DHT22;11478;51.094;7.030;2023-05-10T11:56:39;13.90;99.90
22623;DHT22;11478;51.094;7.030;2023-05-10T11:59:05;13.90;99.90
22623;DHT22;11478;51.094;7.030;2023-05-10T12:01:37;13.90;99.90
22623;DHT22;11478;51.094;7.030;2023-05-10T12:04:03;13.90;99.90
22623;DHT22;11478;51.094;7.030;2023-05-10T12:06:31;14.00;99.90
22623;DHT22;11478;51.094;7.030;2023-05-10T12:08:58;14.00;99.90
22623;DHT22;11478;51.094;7.030;2023-05-10T12:11:28;14.00;99.90
22623;DHT22;11478;51.094;7.030;2023-05-10T12:13:57;14.00;99.90
22623;DHT22;11478;51.094;7.030;2023-05-10T12:16:28;14.00;99.90
22623;DHT22;11478;51.094;7.030;2023-05-10T12:18:59;14.10;99.90
22623;DHT22;11478;51.094;7.030;2023-05-10T12:21:28;14.00;99.90
22623;DHT22;11478;51.094;7.030;2023-05-10T12:24:07;14.00;99.90
22623;DHT22;11478;51.094;7.030;2023-05-10T12:26:36;14.10;99.90
22623;DHT22;11478;51.094;7.030;2023-05-10T12:29:19;14.10;99.90
22623;DHT22;11478;51.094;7.030;2023-05-10T12:31:56;14.20;99.90
22623;DHT22;11478;51.094;7.030;2023-05-10T12:34:34;14.40;99.90
22623;DHT22;11478;51.094;7.030;2023-05-10T12:37:01;14.60;99.90
22623;DHT22;11478;51.094;7.030;2023-05-10T12:39:42;14.60;99.90
22623;DHT22;11478;51.094;7.030;2023-05-10T12:42:08;14.60;99.90
22623;DHT22;11478;51.094;7.030;2023-05-10T12:44:34;14.60;99.90
22623;DHT22;11478;51.094;7.030;2023-05-10T12:47:00;14.60;99.90
22623;DHT22;11478;51.094;7.030;2023-05-10T12:49:26;14.70;99.90
22623;DHT22;11478;51.094;7.030;2023-05-10T12:51:52;14.70;99.90
22623;DHT22;11478;51.094;7.030;2023-05-10T12:54:23;14.70;99.90
22623;DHT22;11478;51.094;7.030;2023-05-10T12:56:51;14.80;99.90
22623;DHT22;11478;51.094;7.030;2023-05-10T12:59:16;14.80;99.90
22623;DHT22;11478;51.094;7.030;2023-05-10T13:01:43;14.80;99.90
22623;DHT22;11478;51.094;7.030;2023-05-10T13:04:09;14.80;99.90
22623;DHT22;11478;51.094;7.030;2023-05-10T13:06:35;14.80;99.90
22623;DHT22;11478;51.094;7.030;2023-05-10T13:09:01;14.80;99.90
22623;DHT22;11478;51.094;7.030;2023-05-10T13:11:29;14.80;99.90
22623;DHT22;11478;51.094;7.030;2023-05-10T13:13:54;14.80;99.90
22623;DHT22;11478;51.094;7.030;2023-05-10T13:16:24;14.70;99.90
22623;DHT22;11478;51.094;7.030;2023-05-10T13:18:53;14.70;99.90
22623;DHT22;11478;51.094;7.030;2023-05-10T13:21:26;14.60;99.90
22623;DHT22;11478;51.094;7.030;2023-05-10T13:23:52;14.60;99.90
22623;DHT22;11478;51.094;7.030;2023-05-10T13:26:19;14.50;99.90
22623;DHT22;11478;51.094;7.030;2023-05-10T13:28:48;14.50;99.90
22623;DHT22;11478;51.094;7.030;2023-05-10T13:31:16;14.40;99.90
22623;DHT22;11478;51.094;7.030;2023-05-10T13:33:42;14.30;99.90
22623;DHT22;11478;51.094;7.030;2023-05-10T13:36:08;14.30;99.90
22623;DHT22;11478;51.094;7.030;2023-05-10T13:38:34;14.30;99.90
22623;DHT22;11478;51.094;7.030;2023-05-10T13:41:00;14.30;99.90
22623;DHT22;11478;51.094;7.030;2023-05-10T13:43:26;14.20;99.90
22623;DHT22;11478;51.094;7.030;2023-05-10T13:45:56;14.20;99.90
22623;DHT22;11478;51.094;7.030;2023-05-10T13:48:22;14.20;99.90
22623;DHT22;11478;51.094;7.030;2023-05-10T13:50:56;14.20;99.90
22623;DHT22;11478;51.094;7.030;2023-05-10T13:53:25;14.10;99.90
22623;DHT22;11478;51.094;7.030;2023-05-10T13:55:51;14.10;99.90
22623;DHT22;11478;51.094;7.030;2023-05-10T13:58:19;14.10;99.90
22623;DHT22;11478;51.094;7.030;2023-05-10T14:00:45;14.10;99.90
22623;DHT22;11478;51.094;7.030;2023-05-10T14:03:11;14.20;99.90
22623;DHT22;11478;51.094;7.030;2023-05-10T14:05:37;14.30;99.90
22623;DHT22;11478;51.094;7.030;2023-05-10T14:08:05;14.30;99.90
22623;DHT22;11478;51.094;7.030;2023-05-10T14:10:31;14.30;99.90
22623;DHT22;11478;51.094;7.030;2023-05-10T14:12:57;14.40;99.90
22623;DHT22;11478;51.094;7.030;2023-05-10T14:15:25;14.30;99.90
22623;DHT22;11478;51.094;7.030;2023-05-10T14:17:55;14.30;99.90
22623;DHT22;11478;51.094;7.030;2023-05-10T14:20:24;14.50;99.90
22623;DHT22;11478;51.094;7.030;2023-05-10T14:22:57;14.60;99.90
22623;DHT22;11478;51.094;7.030;2023-05-10T14:25:23;14.80;99.90
22623;DHT22;11478;51.094;7.030;2023-05-10T14:27:50;15.00;99.90
22623;DHT22;11478;51.094;7.030;2023-05-10T14:30:19;14.90;99.90
22623;DHT22;11478;51.094;7.030;2023-05-10T14:32:45;14.90;99.90
22623;DHT22;11478;51.094;7.030;2023-05-10T14:35:11;14.90;99.90
22623;DHT22;11478;51.094;7.030;2023-05-10T14:37:38;14.90;99.90
22623;DHT22;11478;51.094;7.030;2023-05-10T14:40:06;14.90;99.90
22623;DHT22;11478;51.094;7.030;2023-05-10T14:43:01;14.90;99.90
22623;DHT22;11478;51.094;7.030;2023-05-10T14:45:37;14.90;99.90
22623;DHT22;11478;51.094;7.030;2023-05-10T14:48:03;14.80;99.90
22623;DHT22;11478;51.094;7.030;2023-05-10T14:50:32;14.80;99.90
22623;DHT22;11478;51.094;7.030;2023-05-10T14:53:01;14.80;99.90
22623;DHT22;11478;51.094;7.030;2023-05-10T14:55:32;14.70;99.90
22623;DHT22;11478;51.094;7.030;2023-05-10T14:57:58;14.70;99.90
22623;DHT22;11478;51.094;7.030;2023-05-10T15:00:24;14.60;99.90
22623;DHT22;11478;51.094;7.030;2023-05-10T15:02:50;14.60;99.90
22623;DHT22;11478;51.094;7.030;2023-05-10T15:05:16;14.60;99.90
22623;DHT22;11478;51.094;7.030;2023-05-10T15:07:42;14.50;99.90
22623;DHT22;11478;51.094;7.030;2023-05-10T15:10:09;14.40;99.90
22623;DHT22;11478;51.094;7.030;2023-05-10T15:12:37;14.40;99.90
22623;DHT22;11478;51.094;7.030;2023-05-10T15:15:04;14.40;99.90
22623;DHT22;11478;51.094;7.030;2023-05-10T15:17:30;14.50;99.90
22623;DHT22;11478;51.094;7.030;2023-05-10T15:19:59;14.50;99.90
22623;DHT22;11478;51.094;7.030;2023-05-10T15:22:30;14.50;99.90
22623;DHT22;11478;51.094;7.030;2023-05-10T15:24:58;14.60;99.90
22623;DHT22;11478;51.094;7.030;2023-05-10T15:27:27;14.60;99.90
22623;DHT22;11478;51.094;7.030;2023-05-10T15:29:56;14.60;99.90
22623;DHT22;11478;51.094;7.030;2023-05-10T15:32:24;14.50;99.90
22623;DHT22;11478;51.094;7.030;2023-05-10T15:34:50;14.50;99.90
22623;DHT22;11478;51.094;7.030;2023-05-10T15:37:16;14.50;99.90
22623;DHT22;11478;51.094;7.030;2023-05-10T15:39:41;14.50;99.90
22623;DHT22;11478;51.094;7.030;2023-05-10T15:42:08;14.50;99.90
22623;DHT22;11478;51.094;7.030;2023-05-10T15:44:34;14.50;99.90
22623;DHT22;11478;51.094;7.030;2023-05-10T15:47:04;14.40;99.90
22623;DHT22;11478;51.094;7.030;2023-05-10T15:49:31;14.40;99.90
22623;DHT22;11478;51.094;7.030;2023-05-10T15:52:02;14.50;99.90
22623;DHT22;11478;51.094;7.030;2023-05-10T15:54:28;14.50;99.90
22623;DHT22;11478;51.094;7.030;2023-05-10T15:56:57;14.50;99.90
22623;DHT22;11478;51.094;7.030;2023-05-10T15:59:32;14.60;99.90
22623;DHT22;11478;51.094;7.030;2023-05-10T16:02:00;14.60;99.90
22623;DHT22;11478;51.094;7.030;2023-05-10T16:04:28;14.60;99.90
22623;DHT22;11478;51.094;7.030;2023-05-10T16:06:57;14.60;99.90
22623;DHT22;11478;51.094;7.030;2023-05-10T16:09:23;14.60;99.90
22623;DHT22;11478;51.094;7.030;2023-05-10T16:11:49;14.60;99.90
22623;DHT22;11478;51.094;7.030;2023-05-10T16:14:15;14.60;99.90
22623;DHT22;11478;51.094;7.030;2023-05-10T16:16:41;14.60;99.90